createdAt,value
2024-01-30T00:02:25.567Z,7.80
2024-01-30T00:04:54.222Z,8.15
2024-01-30T00:07:23.096Z,8.10
2024-01-30T00:09:51.899Z,7.57
2024-01-30T00:12:20.613Z,8.38
2024-01-30T00:14:52.144Z,8.93
2024-01-30T00:17:26.374Z,8.07
2024-01-30T00:19:55.342Z,8.20
2024-01-30T00:22:24.067Z,8.60
2024-01-30T00:24:52.932Z,7.63
2024-01-30T00:27:21.646Z,8.50
2024-01-30T00:29:50.366Z,7.47
2024-01-30T00:32:20.367Z,8.50
2024-01-30T00:34:50.681Z,7.55
2024-01-30T00:37:19.597Z,7.80
2024-01-30T00:39:48.233Z,7.57
2024-01-30T00:42:16.867Z,8.45
2024-01-30T00:44:45.821Z,7.68
2024-01-30T00:47:14.456Z,8.02
2024-01-30T00:49:43.191Z,9.57
2024-01-30T00:52:13.358Z,7.95
2024-01-30T00:54:42.193Z,8.45
2024-01-30T00:57:10.918Z,7.72
2024-01-30T00:59:39.517Z,7.15
2024-01-30T01:02:08.417Z,8.35
2024-01-30T01:04:37.299Z,7.57
2024-01-30T01:07:06.137Z,8.93
2024-01-30T01:09:36.160Z,7.25
2024-01-30T01:12:04.972Z,8.40
2024-01-30T01:14:33.519Z,7.70
2024-01-30T01:17:02.048Z,7.70
2024-01-30T01:19:30.824Z,7.78
2024-01-30T01:21:59.581Z,8.15
2024-01-30T01:24:28.206Z,7.75
2024-01-30T01:26:58.435Z,7.93
2024-01-30T01:29:29.861Z,7.47
2024-01-30T01:31:58.733Z,9.02
2024-01-30T01:34:30.353Z,8.25
2024-01-30T01:36:59.966Z,8.82
2024-01-30T01:39:28.474Z,8.48
2024-01-30T01:41:58.493Z,9.05
2024-01-30T01:44:27.301Z,7.70
2024-01-30T01:46:57.163Z,8.35
2024-01-30T01:49:27.661Z,8.35
2024-01-30T01:54:33.100Z,8.07
2024-01-30T01:57:03.306Z,8.10
2024-01-30T01:59:32.286Z,7.53
2024-01-30T02:02:01.283Z,9.30
2024-01-30T02:04:30.172Z,9.30
2024-01-30T02:06:58.896Z,7.75
2024-01-30T02:09:27.721Z,8.25
2024-01-30T02:11:57.034Z,7.95
2024-01-30T02:14:30.022Z,7.40
2024-01-30T02:17:00.385Z,7.40
2024-01-30T02:19:29.186Z,8.07
2024-01-30T02:21:59.287Z,7.60
2024-01-30T02:24:27.930Z,8.25
2024-01-30T02:26:56.581Z,7.10
2024-01-30T02:29:25.161Z,7.97
2024-01-30T02:31:53.881Z,7.40
2024-01-30T02:34:22.876Z,7.20
2024-01-30T02:36:51.475Z,6.90
2024-01-30T02:39:21.663Z,7.65
2024-01-30T02:41:50.154Z,7.25
2024-01-30T02:44:18.828Z,7.60
2024-01-30T02:46:47.407Z,8.32
2024-01-30T02:49:16.131Z,7.75
2024-01-30T02:51:44.972Z,7.88
2024-01-30T02:54:13.727Z,7.90
2024-01-30T02:56:43.732Z,7.93
2024-01-30T02:59:12.294Z,7.53
2024-01-30T03:01:48.013Z,7.72
2024-01-30T03:04:16.923Z,8.90
2024-01-30T03:06:49.525Z,8.25
2024-01-30T03:09:19.322Z,7.78
2024-01-30T03:11:49.334Z,7.20
2024-01-30T03:14:17.912Z,7.50
2024-01-30T03:16:47.260Z,7.95
2024-01-30T03:19:15.894Z,7.03
2024-01-30T03:21:44.596Z,7.32
2024-01-30T03:24:13.169Z,7.47
2024-01-30T03:26:41.677Z,7.25
2024-01-30T03:29:11.653Z,7.45
2024-01-30T03:31:41.313Z,7.32
2024-01-30T03:34:09.913Z,7.70
2024-01-30T03:36:38.494Z,7.82
2024-01-30T03:39:07.340Z,8.10
2024-01-30T03:41:36.010Z,8.48
2024-01-30T03:44:04.839Z,7.65
2024-01-30T03:46:34.761Z,8.00
2024-01-30T03:49:03.341Z,8.63
2024-01-30T03:51:32.263Z,8.82
2024-01-30T03:54:00.904Z,8.57
2024-01-30T03:56:29.479Z,7.68
2024-01-30T03:58:58.213Z,8.23
2024-01-30T04:01:26.845Z,8.15
2024-01-30T04:03:56.983Z,7.80
2024-01-30T04:06:25.507Z,8.32
2024-01-30T04:08:54.077Z,7.60
2024-01-30T04:11:22.764Z,10.07
2024-01-30T04:13:51.301Z,14.48
2024-01-30T04:16:24.009Z,14.57
2024-01-30T04:18:53.787Z,14.32
2024-01-30T04:21:24.773Z,12.68
2024-01-30T04:23:54.074Z,10.68
2024-01-30T04:26:22.806Z,10.13
2024-01-30T04:28:51.487Z,11.73
2024-01-30T04:31:20.133Z,12.13
2024-01-30T04:33:48.848Z,11.45
2024-01-30T04:36:17.709Z,10.82
2024-01-30T04:38:47.845Z,12.52
2024-01-30T04:41:16.485Z,11.88
2024-01-30T04:43:45.259Z,12.35
2024-01-30T04:46:13.877Z,11.32
2024-01-30T04:48:42.479Z,12.07
2024-01-30T04:51:11.167Z,11.32
2024-01-30T04:53:40.981Z,10.77
2024-01-30T04:56:11.246Z,10.13
2024-01-30T04:58:41.100Z,10.23
2024-01-30T05:01:09.967Z,10.70
2024-01-30T05:03:38.725Z,11.68
2024-01-30T05:06:07.920Z,11.02
2024-01-30T05:08:37.711Z,12.02
2024-01-30T05:11:07.490Z,13.10
2024-01-30T05:13:37.547Z,12.25
2024-01-30T05:16:06.679Z,11.32
2024-01-30T05:18:35.387Z,11.18
2024-01-30T05:21:04.865Z,11.32
2024-01-30T05:23:33.429Z,10.45
2024-01-30T05:26:02.507Z,11.40
2024-01-30T05:28:31.888Z,10.40
2024-01-30T05:31:01.960Z,12.50
2024-01-30T05:33:31.015Z,12.45
2024-01-30T05:35:59.677Z,11.45
2024-01-30T05:38:28.569Z,9.80
2024-01-30T05:40:59.254Z,11.43
2024-01-30T05:43:30.118Z,12.55
2024-01-30T05:45:58.846Z,12.02
2024-01-30T05:48:28.871Z,11.98
2024-01-30T05:50:58.086Z,11.90
2024-01-30T05:53:26.901Z,10.27
2024-01-30T05:55:58.477Z,8.77
2024-01-30T05:58:27.321Z,9.50
2024-01-30T06:00:56.122Z,10.05
2024-01-30T06:03:24.931Z,10.30
2024-01-30T06:05:55.060Z,10.75
2024-01-30T06:08:23.801Z,10.63
2024-01-30T06:10:52.331Z,8.73
2024-01-30T06:13:21.221Z,9.07
2024-01-30T06:15:49.861Z,9.73
2024-01-30T06:18:18.692Z,9.60
2024-01-30T06:20:47.268Z,10.07
2024-01-30T06:23:17.494Z,12.77
2024-01-30T06:25:46.072Z,14.63
2024-01-30T06:28:14.646Z,17.67
2024-01-30T06:30:43.317Z,16.15
2024-01-30T06:33:14.620Z,16.40
2024-01-30T06:35:45.155Z,16.75
2024-01-30T06:38:14.543Z,15.82
2024-01-30T06:40:44.532Z,13.90
2024-01-30T06:43:13.192Z,14.43
2024-01-30T06:45:42.040Z,14.63
2024-01-30T06:48:11.003Z,15.43
2024-01-30T06:50:41.936Z,15.10
2024-01-30T06:53:13.422Z,14.52
2024-01-30T06:55:42.404Z,14.48
2024-01-30T06:58:12.660Z,15.82
2024-01-30T07:00:41.448Z,14.57
2024-01-30T07:03:10.132Z,15.20
2024-01-30T07:05:38.886Z,14.60
2024-01-30T07:08:08.467Z,14.52
2024-01-30T07:10:37.333Z,14.02
2024-01-30T07:13:07.167Z,15.18
2024-01-30T07:15:37.830Z,23.92
2024-01-30T07:18:07.286Z,14.32
2024-01-30T07:20:36.698Z,12.95
2024-01-30T07:23:05.505Z,12.10
2024-01-30T07:25:37.862Z,12.20
2024-01-30T07:28:07.423Z,17.13
2024-01-30T07:30:37.482Z,27.48
2024-01-30T07:33:06.615Z,27.67
2024-01-30T07:35:35.178Z,23.95
2024-01-30T07:38:03.763Z,24.10
2024-01-30T07:40:32.572Z,18.58
2024-01-30T07:43:02.086Z,17.33
2024-01-30T07:45:33.804Z,13.98
2024-01-30T07:48:04.090Z,12.40
2024-01-30T07:50:33.257Z,11.80
2024-01-30T07:53:03.367Z,12.77
2024-01-30T07:55:34.012Z,13.43
2024-01-30T07:58:33.498Z,14.65
2024-01-30T08:01:02.487Z,13.48
2024-01-30T08:03:32.598Z,13.98
2024-01-30T08:06:01.196Z,15.27
2024-01-30T08:08:29.902Z,13.98
2024-01-30T08:10:58.546Z,14.35
2024-01-30T08:13:27.306Z,16.55
2024-01-30T08:15:56.140Z,14.57
2024-01-30T08:18:24.888Z,15.95
2024-01-30T08:20:55.000Z,14.27
2024-01-30T08:23:23.738Z,14.93
2024-01-30T08:25:53.280Z,13.70
2024-01-30T08:28:22.183Z,12.70
2024-01-30T08:30:51.194Z,12.00
2024-01-30T08:33:20.073Z,11.65
2024-01-30T08:35:48.939Z,11.75
2024-01-30T08:38:19.290Z,11.45
2024-01-30T08:40:51.933Z,10.93
2024-01-30T08:43:23.820Z,10.60
2024-01-30T08:45:53.269Z,10.02
2024-01-30T08:48:24.004Z,11.07
2024-01-30T08:50:53.097Z,10.82
2024-01-30T08:53:23.604Z,11.30
2024-01-30T08:55:52.278Z,11.75
2024-01-30T08:58:21.627Z,11.48
2024-01-30T09:00:50.672Z,11.55
2024-01-30T09:03:23.644Z,10.75
2024-01-30T09:05:52.606Z,11.43
2024-01-30T09:08:22.849Z,10.50
2024-01-30T09:10:52.270Z,10.65
2024-01-30T09:13:20.938Z,11.48
2024-01-30T09:15:49.799Z,11.00
2024-01-30T09:18:18.804Z,10.43
2024-01-30T09:20:48.770Z,10.32
2024-01-30T09:23:18.548Z,10.45
2024-01-30T09:25:48.714Z,10.35
2024-01-30T09:28:18.453Z,9.73
2024-01-30T09:30:47.544Z,10.32
2024-01-30T09:33:16.619Z,10.10
2024-01-30T09:35:45.476Z,11.52
2024-01-30T09:38:14.483Z,11.38
2024-01-30T09:40:44.312Z,12.60
2024-01-30T09:43:27.710Z,12.77
2024-01-30T09:45:57.565Z,14.30
2024-01-30T09:48:28.198Z,15.23
2024-01-30T09:51:02.393Z,14.25
2024-01-30T09:53:34.408Z,14.60
2024-01-30T09:56:04.826Z,13.10
2024-01-30T09:58:34.954Z,13.18
2024-01-30T10:01:03.865Z,12.75
2024-01-30T10:03:32.803Z,13.48
2024-01-30T10:06:02.588Z,12.23
2024-01-30T10:08:31.260Z,12.40
2024-01-30T10:11:00.140Z,13.63
2024-01-30T10:13:29.016Z,13.68
2024-01-30T10:15:59.517Z,14.38
2024-01-30T10:18:28.023Z,14.07
2024-01-30T10:20:57.233Z,13.23
2024-01-30T10:23:26.172Z,13.02
2024-01-30T10:25:55.852Z,14.05
2024-01-30T10:28:24.526Z,12.82
2024-01-30T10:31:05.084Z,12.10
2024-01-30T10:33:35.646Z,12.02
2024-01-30T10:36:07.137Z,12.80
2024-01-30T10:38:35.869Z,12.20
2024-01-30T10:41:05.550Z,13.32
2024-01-30T10:43:38.740Z,14.75
2024-01-30T10:46:14.543Z,13.80
2024-01-30T10:48:46.985Z,13.60
2024-01-30T10:51:16.594Z,13.20
2024-01-30T10:53:49.725Z,14.80
2024-01-30T10:56:19.309Z,14.52
2024-01-30T10:58:48.123Z,14.82
2024-01-30T11:01:19.161Z,14.85
2024-01-30T11:03:48.360Z,13.48
2024-01-30T11:06:20.314Z,13.25
2024-01-30T11:08:49.245Z,14.32
2024-01-30T11:11:19.982Z,13.32
2024-01-30T11:13:52.433Z,13.98
2024-01-30T11:16:22.807Z,13.68
2024-01-30T11:18:54.264Z,14.02
2024-01-30T11:21:27.940Z,11.95
2024-01-30T11:23:57.842Z,12.35
2024-01-30T11:26:30.631Z,12.45
2024-01-30T11:29:00.259Z,12.20
2024-01-30T11:31:30.273Z,14.10
2024-01-30T11:33:59.975Z,16.50
2024-01-30T11:36:31.939Z,18.20
2024-01-30T11:39:00.769Z,17.48
2024-01-30T11:41:31.559Z,16.27
2024-01-30T11:44:00.254Z,15.27
2024-01-30T11:46:30.274Z,14.40
2024-01-30T11:48:59.194Z,12.60
2024-01-30T11:51:28.225Z,13.23
2024-01-30T11:53:56.921Z,12.32
2024-01-30T11:56:28.054Z,12.05
2024-01-30T11:58:56.747Z,10.80
2024-01-30T12:01:34.061Z,11.25
2024-01-30T12:04:03.347Z,10.88
2024-01-30T12:06:32.451Z,11.18
2024-01-30T12:09:09.084Z,11.88
2024-01-30T12:11:46.633Z,12.07
2024-01-30T12:14:16.396Z,13.00
2024-01-30T12:16:46.377Z,11.27
2024-01-30T12:19:24.596Z,11.52
2024-01-30T12:21:58.036Z,11.27
2024-01-30T12:24:27.182Z,12.02
2024-01-30T12:26:59.629Z,12.35
2024-01-30T12:29:33.110Z,12.23
2024-01-30T12:32:06.291Z,12.05
2024-01-30T12:34:42.349Z,12.68
2024-01-30T12:37:23.728Z,11.18
2024-01-30T12:39:55.903Z,12.15
2024-01-30T12:42:24.592Z,13.55
2024-01-30T12:44:52.105Z,14.27
2024-01-30T12:47:24.230Z,14.57
2024-01-30T12:49:54.925Z,14.50
2024-01-30T12:52:25.307Z,13.80
2024-01-30T12:54:54.647Z,13.43
2024-01-30T12:57:23.367Z,13.02
2024-01-30T12:59:52.129Z,12.55
2024-01-30T13:02:23.763Z,13.65
2024-01-30T13:04:52.825Z,13.73
2024-01-30T13:07:22.070Z,13.10
2024-01-30T13:09:50.893Z,14.02
2024-01-30T13:12:19.694Z,13.73
2024-01-30T13:14:48.552Z,12.70
2024-01-30T13:17:17.239Z,13.50
2024-01-30T13:19:47.563Z,14.63
2024-01-30T13:22:16.045Z,14.30
2024-01-30T13:24:44.818Z,13.23
2024-01-30T13:27:13.433Z,15.00
2024-01-30T13:29:42.331Z,16.52
2024-01-30T13:32:11.136Z,17.90
2024-01-30T13:34:40.748Z,17.42
2024-01-30T13:37:11.880Z,17.70
2024-01-30T13:39:41.431Z,18.52
2024-01-30T13:42:10.126Z,18.13
2024-01-30T13:44:38.790Z,14.63
2024-01-30T13:47:07.736Z,16.70
2024-01-30T13:49:36.486Z,16.73
2024-01-30T13:52:06.144Z,14.68
2024-01-30T13:54:36.192Z,15.68
2024-01-30T13:57:05.470Z,17.40
2024-01-30T13:59:34.112Z,16.75
2024-01-30T14:02:03.004Z,17.08
2024-01-30T14:04:31.767Z,17.58
2024-01-30T14:07:04.882Z,20.13
2024-01-30T14:09:37.768Z,23.38
2024-01-30T14:12:07.138Z,25.73
2024-01-30T14:17:21.948Z,27.33
2024-01-30T14:19:50.775Z,28.02
2024-01-30T14:22:19.331Z,28.67
2024-01-30T14:24:49.292Z,25.73
2024-01-30T14:27:19.201Z,25.88
2024-01-30T14:29:48.014Z,24.95
2024-01-30T14:32:16.784Z,25.88
2024-01-30T14:34:46.249Z,22.73
2024-01-30T14:37:14.955Z,22.65
2024-01-30T14:39:43.520Z,23.25
2024-01-30T14:42:13.642Z,22.33
2024-01-30T14:44:42.235Z,21.02
2024-01-30T14:47:11.448Z,20.90
2024-01-30T14:49:40.083Z,21.38
2024-01-30T14:52:10.512Z,19.52
2024-01-30T14:54:39.266Z,20.38
2024-01-30T14:57:07.964Z,21.42
2024-01-30T14:59:38.083Z,25.70
2024-01-30T15:02:06.777Z,28.13
2024-01-30T15:04:36.603Z,28.45
2024-01-30T15:07:05.826Z,25.10
2024-01-30T15:09:34.822Z,19.65
2024-01-30T15:12:04.081Z,22.13
2024-01-30T15:14:32.718Z,26.33
2024-01-30T15:17:03.371Z,25.00
2024-01-30T15:19:32.246Z,24.73
2024-01-30T15:22:00.827Z,25.88
2024-01-30T15:24:29.502Z,28.42
2024-01-30T15:26:58.081Z,28.30
2024-01-30T15:29:28.335Z,27.40
2024-01-30T15:31:57.002Z,24.90
2024-01-30T15:34:27.186Z,24.35
2024-01-30T15:36:55.886Z,29.92
2024-01-30T15:39:26.874Z,29.83
2024-01-30T15:41:56.557Z,29.90
2024-01-30T15:44:25.459Z,26.98
2024-01-30T15:46:54.135Z,26.88
2024-01-30T15:49:22.981Z,26.92
2024-01-30T15:51:52.868Z,27.02
2024-01-30T15:54:21.774Z,27.38
2024-01-30T15:56:50.692Z,27.98
2024-01-30T15:59:19.448Z,29.08
2024-01-30T16:01:50.595Z,30.25
2024-01-30T16:04:19.407Z,30.67
2024-01-30T16:06:48.174Z,30.98
2024-01-30T16:09:18.643Z,30.13
2024-01-30T16:11:47.316Z,28.85
2024-01-30T16:14:16.350Z,31.63
2024-01-30T16:16:45.512Z,28.45
2024-01-30T16:19:14.506Z,27.27
2024-01-30T16:21:45.641Z,26.55
2024-01-30T16:24:14.403Z,30.50
2024-01-30T16:26:44.428Z,30.77
2024-01-30T16:29:13.199Z,32.58
2024-01-30T16:31:42.041Z,32.20
2024-01-30T16:34:10.931Z,32.53
2024-01-30T16:36:41.072Z,30.77
2024-01-30T16:39:10.140Z,31.15
2024-01-30T16:41:39.303Z,31.98
2024-01-30T16:44:09.456Z,32.45
2024-01-30T16:46:39.629Z,31.20
2024-01-30T16:49:08.514Z,31.25
2024-01-30T16:51:37.177Z,29.35
2024-01-30T16:54:05.739Z,30.02
2024-01-30T16:56:34.232Z,29.48
2024-01-30T16:59:03.121Z,28.98
2024-01-30T17:01:33.281Z,28.88
2024-01-30T17:04:02.236Z,28.75
2024-01-30T17:06:31.043Z,30.55
2024-01-30T17:08:59.861Z,33.70
2024-01-30T17:11:28.457Z,30.88
2024-01-30T17:13:57.162Z,30.63
2024-01-30T17:16:25.873Z,27.17
2024-01-30T17:18:55.984Z,28.83
2024-01-30T17:21:25.097Z,26.33
2024-01-30T17:23:53.785Z,30.80
2024-01-30T17:26:22.964Z,30.83
2024-01-30T17:28:51.774Z,28.88
2024-01-30T17:31:20.405Z,30.05
2024-01-30T17:33:49.157Z,28.95
2024-01-30T17:36:19.294Z,30.40
2024-01-30T17:38:48.411Z,30.23
2024-01-30T17:41:16.939Z,30.75
2024-01-30T17:43:45.623Z,28.63
2024-01-30T17:46:14.156Z,29.35
2024-01-30T17:48:44.105Z,26.90
2024-01-30T17:51:14.529Z,25.23
2024-01-30T17:53:44.752Z,27.65
2024-01-30T17:56:13.364Z,26.08
2024-01-30T17:58:42.198Z,28.38
2024-01-30T18:01:12.489Z,26.42
2024-01-30T18:03:42.386Z,26.75
2024-01-30T18:06:11.804Z,27.23
2024-01-30T18:08:40.276Z,27.98
2024-01-30T18:11:11.536Z,29.38
2024-01-30T18:13:40.177Z,26.88
2024-01-30T18:16:08.772Z,27.73
2024-01-30T18:18:37.609Z,28.63
2024-01-30T18:21:08.348Z,29.50
2024-01-30T18:23:37.160Z,32.85
2024-01-30T18:26:06.070Z,30.15
2024-01-30T18:28:36.341Z,30.75
2024-01-30T18:31:05.749Z,32.03
2024-01-30T18:33:34.314Z,32.22
2024-01-30T18:36:03.203Z,30.98
2024-01-30T18:38:34.814Z,31.17
2024-01-30T18:41:06.851Z,35.50
2024-01-30T18:43:37.378Z,36.50
2024-01-30T18:46:06.396Z,32.80
2024-01-30T18:48:36.147Z,34.42
2024-01-30T18:51:05.327Z,36.95
2024-01-30T18:53:34.212Z,35.03
2024-01-30T18:56:03.832Z,36.20
2024-01-30T18:58:32.434Z,35.50
2024-01-30T19:01:02.486Z,38.90
2024-01-30T19:03:32.070Z,42.65
2024-01-30T19:06:00.901Z,46.97
2024-01-30T19:08:29.757Z,47.20
2024-01-30T19:10:58.372Z,46.78
2024-01-30T19:13:27.274Z,46.60
2024-01-30T19:15:56.301Z,43.00
2024-01-30T19:18:26.751Z,40.15
2024-01-30T19:20:55.356Z,38.17
2024-01-30T19:23:23.921Z,33.85
2024-01-30T19:25:52.825Z,35.67
2024-01-30T19:28:21.503Z,34.08
2024-01-30T19:30:51.001Z,34.17
2024-01-30T19:33:19.679Z,37.17
2024-01-30T19:35:49.742Z,37.35
2024-01-30T19:38:19.780Z,37.08
2024-01-30T19:40:49.924Z,34.75
2024-01-30T19:43:20.370Z,35.90
2024-01-30T19:45:50.141Z,32.08
2024-01-30T19:48:18.959Z,32.90
2024-01-30T19:50:47.673Z,32.95
2024-01-30T19:53:17.702Z,35.28
2024-01-30T19:55:46.235Z,32.65
2024-01-30T19:58:15.031Z,31.83
2024-01-30T20:00:44.175Z,33.45
2024-01-30T20:03:12.764Z,32.08
2024-01-30T20:05:41.488Z,29.98
2024-01-30T20:08:10.078Z,28.98
2024-01-30T20:10:40.525Z,23.65
2024-01-30T20:13:09.142Z,22.55
2024-01-30T20:15:37.782Z,22.42
2024-01-30T20:18:06.969Z,21.27
2024-01-30T20:20:35.541Z,20.85
2024-01-30T20:23:04.089Z,21.65
2024-01-30T20:25:32.756Z,21.60
2024-01-30T20:28:03.515Z,20.10
2024-01-30T20:30:32.102Z,21.38
2024-01-30T20:33:00.987Z,20.67
2024-01-30T20:35:29.751Z,18.52
2024-01-30T20:37:58.205Z,18.80
2024-01-30T20:40:26.849Z,19.05
2024-01-30T20:42:55.439Z,18.23
2024-01-30T20:45:25.449Z,17.60
2024-01-30T20:47:54.063Z,19.02
2024-01-30T20:50:22.664Z,18.63
2024-01-30T20:52:51.234Z,18.98
2024-01-30T20:55:19.839Z,19.02
2024-01-30T20:57:48.461Z,18.25
2024-01-30T21:00:18.019Z,17.52
2024-01-30T21:02:47.905Z,17.75
2024-01-30T21:05:23.627Z,17.15
2024-01-30T21:07:52.935Z,17.20
2024-01-30T21:10:23.870Z,16.75
2024-01-30T21:12:53.030Z,18.08
2024-01-30T21:15:26.235Z,17.45
2024-01-30T21:17:56.365Z,19.80
2024-01-30T21:20:25.145Z,19.48
2024-01-30T21:22:53.802Z,23.63
2024-01-30T21:25:22.789Z,25.52
2024-01-30T21:27:51.399Z,27.13
2024-01-30T21:30:20.057Z,26.30
2024-01-30T21:32:48.655Z,26.30
2024-01-30T21:35:18.716Z,23.38
2024-01-30T21:37:47.230Z,23.80
2024-01-30T21:40:18.563Z,22.92
2024-01-30T21:42:52.340Z,21.73
2024-01-30T21:45:22.855Z,22.00
2024-01-30T21:47:51.715Z,22.35
2024-01-30T21:50:22.120Z,21.88
2024-01-30T21:52:50.856Z,21.67
2024-01-30T21:55:19.487Z,20.75
2024-01-30T21:57:48.290Z,19.63
2024-01-30T22:00:17.741Z,19.58
2024-01-30T22:02:46.631Z,18.08
2024-01-30T22:05:15.343Z,18.65
2024-01-30T22:07:45.534Z,19.15
2024-01-30T22:10:14.539Z,20.65
2024-01-30T22:12:43.113Z,20.83
2024-01-30T22:15:12.652Z,21.90
2024-01-30T22:17:41.360Z,24.83
2024-01-30T22:20:10.683Z,27.40
2024-01-30T22:22:39.343Z,25.75
2024-01-30T22:25:09.830Z,27.40
2024-01-30T22:27:42.001Z,28.27
2024-01-30T22:30:11.214Z,27.30
2024-01-30T22:32:39.761Z,28.02
2024-01-30T22:35:11.743Z,28.38
2024-01-30T22:37:40.555Z,28.42
2024-01-30T22:40:11.628Z,28.77
2024-01-30T22:42:40.337Z,27.08
2024-01-30T22:45:09.781Z,27.23
2024-01-30T22:47:38.427Z,29.13
2024-01-30T22:50:07.386Z,21.73
2024-01-30T22:52:36.251Z,16.52
2024-01-30T22:55:05.057Z,15.88
2024-01-30T22:57:35.149Z,14.98
2024-01-30T23:00:08.638Z,16.05
2024-01-30T23:02:39.217Z,16.92
2024-01-30T23:05:08.241Z,15.35
2024-01-30T23:07:41.161Z,15.23
2024-01-30T23:10:10.879Z,16.73
2024-01-30T23:12:41.184Z,15.63
2024-01-30T23:15:09.787Z,16.52
2024-01-30T23:17:40.083Z,16.15
2024-01-30T23:20:11.086Z,16.65
2024-01-30T23:22:39.984Z,16.88
2024-01-30T23:25:11.761Z,15.63
2024-01-30T23:27:41.860Z,16.90
2024-01-30T23:30:11.227Z,14.40
2024-01-30T23:32:43.237Z,15.20
2024-01-30T23:35:12.737Z,14.35
2024-01-30T23:37:41.743Z,14.82
2024-01-30T23:40:14.119Z,14.63
2024-01-30T23:42:44.437Z,14.77
2024-01-30T23:45:13.146Z,14.80
2024-01-30T23:47:41.765Z,14.38
2024-01-30T23:50:10.985Z,13.95
2024-01-30T23:52:43.561Z,15.60
2024-01-30T23:55:12.469Z,15.18
2024-01-30T23:57:41.070Z,15.82
